This is the latest recevied weather packets stored in our database for station/object KG4QXL-2. If no packets are shown the sender has not sent any weather packets the latest 10 day(s).
| Time | Temp. | Humidity | Pressure | Rain* | Wind** | Luminosity | Snow |
|---|---|---|---|---|---|---|---|
| 1777452939 | 12.78° C | 82% | 1009.3 hPa | 0 mm | - | 0 W/m² | - |
| 1777451119 | 12.78° C | 82% | 1009.3 hPa | 0 mm | - | 0 W/m² | - |
| 1777450519 | 12.78° C | 82% | 1009.3 hPa | 0 mm | - | 0 W/m² | - |
| 1777448121 | 12.78° C | 83% | 1008.8 hPa | 0 mm | - | 0 W/m² | - |
| 1777447520 | 12.78° C | 84% | 1009 hPa | 0 mm | - | 0 W/m² | - |
| 1777443921 | 13.33° C | 88% | 1009.9 hPa | 0 mm | - | 0 W/m² | - |
| 1777442120 | 13.33° C | 89% | 1010.3 hPa | 0 mm | - | 0 W/m² | - |
| 1777441521 | 13.33° C | 90% | 1010.3 hPa | 0 mm | - | 0 W/m² | - |
| 1777440940 | 13.33° C | 90% | 1010.5 hPa | 0 mm | - | 0 W/m² | - |
| 1777436720 | 13.33° C | 89% | 1011.6 hPa | 0 mm | - | 0 W/m² | - |
| 1777435520 | 13.89° C | 86% | 1011.6 hPa | 0 mm | - | 0 W/m² | - |
| 1777432520 | 14.44° C | 91% | 1011.6 hPa | 0 mm | - | 0 W/m² | - |
| 1777428320 | 14.44° C | 90% | 1012 hPa | 0 mm | - | 0 W/m² | - |
| 1777426521 | 14.44° C | 89% | 1011.5 hPa | 0 mm | - | 0 W/m² | - |
| 1777420520 | 16.11° C | 82% | 1010.8 hPa | 0 mm | - | 0 W/m² | - |
| 1777419320 | 16.67° C | 82% | 1011.3 hPa | 0 mm | - | 0 W/m² | - |
| 1777417520 | 16.67° C | 79% | 1011.4 hPa | 0 mm | - | 0 W/m² | - |
| 1777416920 | 16.67° C | 78% | 1011.4 hPa | 0 mm | - | 1 W/m² | - |
| 1777414520 | 16.67° C | 77% | 1011.3 hPa | 0 mm | - | 4 W/m² | - |
| 1777410920 | 17.22° C | 74% | 1011.5 hPa | 0 mm | - | 4 W/m² | - |
| 1777410320 | 17.22° C | 74% | 1011.5 hPa | 0 mm | - | 6 W/m² | - |
| 1777408521 | 16.67° C | 74% | 1011.5 hPa | 0 mm | - | 5 W/m² | - |
| 1777407921 | 16.67° C | 73% | 1011.8 hPa | 0 mm | - | 7 W/m² | - |
| 1777401321 | 16.11° C | 71% | 1012.5 hPa | 0 mm | - | 28 W/m² | - |
| 1777388120 | 10.56° C | 90% | 1015.8 hPa | 0 mm | - | 6 W/m² | - |
* Rain latest hour (hover to see other rain measurements)
** Current wind speed in m/s (hover to see current wind gust speed)